Time;durP1;ratioP1;P1;durP2;ratioP2;P2;SDS_P1;SDS_P2;PMS_P1;PMS_P2;Temp;Humidity;BMP_temperature;BMP_pressure;BME280_temperature;BME280_humidity;BME280_pressure;Samples;Min_cycle;Max_cycle;Signal;HPM_P1;HPM_P2
2022/03/04 00:02:25;;;;;;;18.80;11.70;;;1.40;37.20;;;;;;4993266;28;20458;-83
2022/03/04 00:04:53;;;;;;;22.03;13.40;;;1.30;37.20;;;;;;4994515;28;20458;-84
2022/03/04 00:07:19;;;;;;;19.67;11.90;;;1.30;37.30;;;;;;4993693;28;20458;-84
2022/03/04 00:09:48;;;;;;;20.17;11.70;;;1.30;37.30;;;;;;4994498;28;20843;-83
2022/03/04 00:12:14;;;;;;;20.50;12.13;;;1.30;37.30;;;;;;4994629;28;20458;-83
2022/03/04 00:14:41;;;;;;;21.97;13.40;;;1.40;37.40;;;;;;4994413;28;20462;-83
2022/03/04 00:17:08;;;;;;;21.83;12.70;;;1.40;37.40;;;;;;4994433;28;20465;-82
2022/03/04 00:19:34;;;;;;;19.10;12.50;;;1.60;36.20;;;;;;4993177;28;20481;-83
2022/03/04 00:22:01;;;;;;;26.10;13.90;;;1.50;37.50;;;;;;4993596;28;20465;-82
2022/03/04 00:24:28;;;;;;;20.13;12.80;;;1.40;37.40;;;;;;4993828;28;20461;-83
2022/03/04 00:26:56;;;;;;;20.45;13.75;;;1.30;37.30;;;;;;4993612;28;20458;-83
2022/03/04 00:29:23;;;;;;;25.30;12.60;;;1.30;37.40;;;;;;4993558;28;20218;-83
2022/03/04 00:31:49;;;;;;;24.27;14.90;;;1.20;38.40;;;;;;4993557;28;20478;-83
2022/03/04 00:34:16;;;;;;;26.55;15.38;;;1.40;38.70;;;;;;4993581;28;20454;-82
2022/03/04 00:36:43;;;;;;;25.83;13.60;;;1.30;38.20;;;;;;4993559;28;20206;-84
2022/03/04 00:39:11;;;;;;;30.73;14.40;;;1.30;39.30;;;;;;4992850;28;20872;-83
2022/03/04 00:41:39;;;;;;;25.83;14.03;;;1.20;40.10;;;;;;4993395;28;20449;-83
2022/03/04 00:44:07;;;;;;;28.27;14.47;;;1.10;40.20;;;;;;4993561;28;20457;-83
2022/03/04 00:46:34;;;;;;;25.60;14.87;;;0.90;40.10;;;;;;4993747;28;20454;-83
2022/03/04 00:49:00;;;;;;;28.13;14.00;;;0.80;41.30;;;;;;4993426;28;20940;-82
2022/03/04 00:51:27;;;;;;;26.88;15.60;;;0.70;42.30;;;;;;4993419;28;20478;-83
2022/03/04 00:53:54;;;;;;;21.97;13.83;;;0.70;42.30;;;;;;4993300;28;20215;-83
2022/03/04 00:56:21;;;;;;;25.07;13.87;;;0.70;43.10;;;;;;4993349;28;20462;-83
2022/03/04 00:58:48;;;;;;;24.93;15.10;;;0.80;42.90;;;;;;4993128;28;20481;-83
2022/03/04 01:01:17;;;;;;;25.60;15.93;;;0.80;43.60;;;;;;4993569;28;20461;-83
2022/03/04 01:03:44;;;;;;;23.67;16.00;;;0.70;44.20;;;;;;4993371;28;20457;-82
2022/03/04 01:06:11;;;;;;;24.13;15.10;;;0.50;45.10;;;;;;4993636;28;20465;-82
2022/03/04 01:08:37;;;;;;;23.60;14.87;;;0.60;45.30;;;;;;4993807;28;20473;-83
2022/03/04 01:11:04;;;;;;;18.90;13.40;;;0.50;45.30;;;;;;4993426;28;20482;-82
2022/03/04 01:13:31;;;;;;;26.53;14.57;;;0.60;45.40;;;;;;4996144;28;20459;-83
2022/03/04 01:15:58;;;;;;;23.15;13.75;;;0.40;46.30;;;;;;4997275;28;20951;-83
2022/03/04 01:18:26;;;;;;;21.63;13.60;;;0.30;46.60;;;;;;4996623;28;20231;-82
2022/03/04 01:20:53;;;;;;;26.13;15.70;;;0.30;46.50;;;;;;4997173;28;20450;-83
2022/03/04 01:23:19;;;;;;;30.17;14.60;;;0.40;46.10;;;;;;4996654;28;20230;-83
2022/03/04 01:25:46;;;;;;;23.92;13.60;;;0.40;45.30;;;;;;4996921;28;20458;-82
2022/03/04 01:28:13;;;;;;;26.20;17.07;;;0.40;45.50;;;;;;4996600;28;20230;-83
2022/03/04 01:30:40;;;;;;;23.13;14.70;;;0.60;45.40;;;;;;4997074;28;20489;-83
2022/03/04 01:33:06;;;;;;;26.60;14.37;;;0.80;43.30;;;;;;4996720;28;20989;-83
2022/03/04 01:35:36;;;;;;;22.27;13.93;;;0.80;43.10;;;;;;4996527;28;20458;-83
2022/03/04 01:38:03;;;;;;;25.33;13.97;;;0.70;43.70;;;;;;4997185;28;20476;-82
2022/03/04 01:40:30;;;;;;;23.87;13.90;;;0.50;45.30;;;;;;4996636;28;20856;-82
2022/03/04 01:42:57;;;;;;;28.77;15.40;;;0.40;45.20;;;;;;4996756;28;20950;-83
2022/03/04 01:45:24;;;;;;;27.77;15.10;;;0.30;46.40;;;;;;4996606;28;20465;-83
2022/03/04 01:47:51;;;;;;;25.23;14.87;;;0.30;46.60;;;;;;4996825;28;20866;-83
2022/03/04 01:50:17;;;;;;;32.70;17.17;;;0.20;47.60;;;;;;4996324;28;20991;-83
2022/03/04 01:52:46;;;;;;;26.27;16.05;;;0.10;48.80;;;;;;4996971;28;20462;-82
2022/03/04 01:55:13;;;;;;;25.17;15.73;;;0.10;49.40;;;;;;4996949;28;20203;-83
2022/03/04 01:57:39;;;;;;;29.42;16.52;;;0.10;49.80;;;;;;4996357;28;20469;-82
2022/03/04 02:00:10;;;;;;;24.55;14.77;;;0.10;49.50;;;;;;4996066;28;20227;-80
2022/03/04 02:02:37;;;;;;;24.85;14.75;;;0.20;48.50;;;;;;4996295;28;20202;-82
2022/03/04 02:05:04;;;;;;;22.60;14.30;;;0.20;47.70;;;;;;4996585;28;20210;-82
2022/03/04 02:07:31;;;;;;;31.37;16.10;;;0.30;47.80;;;;;;4996320;28;20458;-83
2022/03/04 02:09:59;;;;;;;25.23;15.40;;;0.10;48.40;;;;;;4995821;28;20486;-84
2022/03/04 02:12:26;;;;;;;20.07;13.73;;;0.10;48.70;;;;;;4996001;28;20489;-82
2022/03/04 02:14:52;;;;;;;26.03;14.53;;;0.20;47.10;;;;;;4996000;28;20446;-83
2022/03/04 02:17:19;;;;;;;30.75;17.63;;;0.30;46.40;;;;;;4996319;28;20461;-83
2022/03/04 02:19:51;;;;;;;26.23;14.80;;;0.50;45.30;;;;;;4995847;28;20485;-83
2022/03/04 02:22:20;;;;;;;26.70;15.67;;;0.50;45.30;;;;;;4996184;28;20458;-83
2022/03/04 02:24:46;;;;;;;25.77;14.73;;;0.30;45.70;;;;;;4995324;28;20457;-83
2022/03/04 02:27:13;;;;;;;25.87;15.47;;;0.20;47.30;;;;;;4995977;28;20838;-82
2022/03/04 02:29:40;;;;;;;24.38;15.00;;;0.00;48.20;;;;;;4994990;28;20478;-83
2022/03/04 02:32:07;;;;;;;23.92;15.13;;;0.00;48.80;;;;;;4995961;28;20721;-82
2022/03/04 02:34:34;;;;;;;26.38;15.55;;;-0.30;49.40;;;;;;4995735;28;20210;-82
2022/03/04 02:37:01;;;;;;;25.03;15.00;;;-0.40;51.40;;;;;;4995752;28;20222;-81
2022/03/04 02:39:29;;;;;;;25.10;15.87;;;-0.40;53.00;;;;;;4995198;28;20478;-83
2022/03/04 02:41:55;;;;;;;24.08;14.88;;;-0.40;53.00;;;;;;4995860;28;20454;-83
2022/03/04 02:44:22;;;;;;;25.55;16.60;;;-0.40;53.00;;;;;;4995524;28;20199;-83
2022/03/04 02:46:49;;;;;;;27.15;16.67;;;-0.60;54.20;;;;;;4995717;28;20208;-82
2022/03/04 02:49:16;;;;;;;24.98;15.93;;;-0.80;55.60;;;;;;4995498;28;20223;-82
2022/03/04 02:51:42;;;;;;;28.95;16.85;;;-0.70;57.40;;;;;;4995304;28;20230;-83
2022/03/04 02:54:09;;;;;;;33.10;18.50;;;-0.70;57.00;;;;;;4995317;28;20209;-82
2022/03/04 02:56:37;;;;;;;31.38;17.20;;;-0.50;56.60;;;;;;4995122;28;20457;-82
2022/03/04 02:59:04;;;;;;;27.25;17.25;;;-0.40;56.00;;;;;;4994942;28;20319;-83
2022/03/04 03:01:31;;;;;;;28.42;15.65;;;-0.10;53.20;;;;;;4995535;28;20196;-81
2022/03/04 03:03:58;;;;;;;26.73;16.92;;;0.10;52.10;;;;;;4995651;28;20199;-83
2022/03/04 03:06:25;;;;;;;27.55;15.75;;;0.10;51.10;;;;;;4995082;28;20688;-82
2022/03/04 03:08:51;;;;;;;30.65;16.52;;;0.10;53.20;;;;;;4994893;28;20218;-83
2022/03/04 03:11:18;;;;;;;31.63;19.73;;;-0.10;53.00;;;;;;4994878;28;20226;-82
2022/03/04 03:13:46;;;;;;;25.53;16.00;;;-0.10;53.20;;;;;;4995218;28;20199;-83
2022/03/04 03:16:13;;;;;;;30.33;17.13;;;-0.30;53.00;;;;;;4995621;28;20465;-82
2022/03/04 03:18:39;;;;;;;32.45;17.88;;;-0.40;53.50;;;;;;4995221;28;20473;-83
2022/03/04 03:21:06;;;;;;;28.67;16.90;;;-0.50;54.60;;;;;;4994639;28;20203;-82
2022/03/04 03:23:34;;;;;;;31.30;18.40;;;-0.70;56.50;;;;;;4994296;28;20245;-82
2022/03/04 03:26:01;;;;;;;29.33;17.47;;;-0.70;61.00;;;;;;4995182;28;20454;-83
2022/03/04 03:28:27;;;;;;;29.70;18.70;;;-0.80;62.60;;;;;;4993806;28;20458;-82
2022/03/04 03:30:56;;;;;;;33.22;19.05;;;-0.90;62.80;;;;;;4993781;28;20211;-83
2022/03/04 03:33:23;;;;;;;31.50;20.60;;;-1.10;63.00;;;;;;4993914;28;20202;-82
2022/03/04 03:35:54;;;;;;;35.35;17.63;;;-1.30;65.50;;;;;;4994297;28;20202;-82
2022/03/04 03:38:21;;;;;;;33.83;21.67;;;-1.30;67.00;;;;;;4994160;28;20242;-81
2022/03/04 03:40:48;;;;;;;32.40;19.88;;;-1.20;68.30;;;;;;4995215;28;20282;-82
2022/03/04 03:43:15;;;;;;;28.75;18.65;;;-1.20;68.00;;;;;;4994298;28;20198;-83
2022/03/04 03:45:42;;;;;;;26.33;19.08;;;-1.20;67.60;;;;;;4994911;28;20210;-82
2022/03/04 03:48:10;;;;;;;31.15;19.20;;;-1.30;68.30;;;;;;4993823;28;20218;-83
2022/03/04 03:50:38;;;;;;;36.65;20.17;;;-1.50;67.30;;;;;;4993759;28;20215;-83
2022/03/04 03:53:05;;;;;;;34.00;21.45;;;-1.60;68.20;;;;;;4993610;28;20219;-82
2022/03/04 03:55:31;;;;;;;32.67;21.65;;;-1.60;72.00;;;;;;4993518;28;20202;-83
2022/03/04 03:57:58;;;;;;;32.55;19.85;;;-1.60;74.50;;;;;;4993266;28;20202;-82
2022/03/04 04:00:25;;;;;;;31.83;22.00;;;-1.50;75.20;;;;;;5034035;23;20233;-81
2022/03/04 04:02:52;;;;;;;29.10;20.38;;;-1.40;74.60;;;;;;5021004;28;20204;-82
2022/03/04 04:05:20;;;;;;;31.85;18.83;;;-1.30;75.40;;;;;;5020800;28;20203;-82
2022/03/04 04:07:47;;;;;;;30.67;22.27;;;-1.40;74.30;;;;;;5021327;28;20208;-82
2022/03/04 04:10:14;;;;;;;30.27;21.15;;;-1.50;75.00;;;;;;5021297;28;20706;-81
2022/03/04 04:12:40;;;;;;;31.77;22.45;;;-1.60;76.00;;;;;;5021444;28;20218;-81
2022/03/04 04:15:08;;;;;;;36.83;23.52;;;-1.70;75.70;;;;;;5021280;28;20198;-81
2022/03/04 04:17:35;;;;;;;33.05;24.20;;;-1.80;77.00;;;;;;5021089;28;20200;-82
2022/03/04 04:20:02;;;;;;;38.13;26.15;;;-1.80;78.90;;;;;;5020879;28;20241;-82
2022/03/04 04:22:30;;;;;;;35.33;24.75;;;-1.80;79.30;;;;;;5021049;28;20342;-81
2022/03/04 04:24:57;;;;;;;37.30;25.10;;;-1.80;79.80;;;;;;5021317;28;20201;-82
2022/03/04 04:27:24;;;;;;;36.15;27.73;;;-1.80;80.30;;;;;;5020948;28;20205;-82
2022/03/04 04:29:50;;;;;;;35.90;26.42;;;-1.90;80.70;;;;;;5021195;28;20729;-82
2022/03/04 04:32:17;;;;;;;32.47;28.75;;;-2.00;82.10;;;;;;5020383;28;20218;-81
2022/03/04 04:34:44;;;;;;;42.63;36.40;;;-2.10;82.30;;;;;;5020969;28;20214;-81
2022/03/04 04:37:11;;;;;;;41.63;34.97;;;-2.30;82.80;;;;;;5021167;28;20202;-80
2022/03/04 04:39:39;;;;;;;44.88;38.17;;;-2.40;82.70;;;;;;5020434;28;20214;-81
2022/03/04 04:42:06;;;;;;;42.03;37.53;;;-2.50;86.00;;;;;;5020898;28;20575;-82
2022/03/04 04:44:33;;;;;;;54.30;49.17;;;-2.60;86.80;;;;;;5018056;28;20733;-80
2022/03/04 04:46:59;;;;;;;74.82;69.38;;;-2.70;89.80;;;;;;5019615;28;20216;-81
2022/03/04 04:49:26;;;;;;;71.70;66.65;;;-2.80;91.60;;;;;;5024391;28;20222;-81
2022/03/04 04:51:53;;;;;;;66.65;61.95;;;-2.90;92.50;;;;;;5026051;28;20229;-81
2022/03/04 04:54:20;;;;;;;83.65;77.50;;;-2.90;93.10;;;;;;5025546;28;20198;-80
2022/03/04 04:56:48;;;;;;;86.85;81.15;;;-2.90;94.30;;;;;;5023421;28;20205;-81
2022/03/04 04:59:14;;;;;;;88.43;82.32;;;-2.90;94.90;;;;;;5021488;28;20625;-80
2022/03/04 05:01:41;;;;;;;98.00;91.90;;;-2.90;95.10;;;;;;5025315;28;20194;-81
2022/03/04 05:04:09;;;;;;;93.85;87.75;;;-3.00;96.30;;;;;;5024821;28;20206;-80
2022/03/04 05:06:37;;;;;;;96.00;88.82;;;-3.00;95.80;;;;;;5025928;28;20205;-81
2022/03/04 05:09:04;;;;;;;145.02;136.93;;;-3.10;96.70;;;;;;5025389;28;20308;-81
2022/03/04 05:11:31;;;;;;;174.50;164.40;;;-3.10;97.70;;;;;;5025173;28;20706;-81
2022/03/04 05:13:59;;;;;;;219.55;208.07;;;-3.10;98.90;;;;;;5025756;28;20204;-80
2022/03/04 05:16:26;;;;;;;185.63;174.98;;;-3.10;99.90;;;;;;5025823;28;20622;-81
2022/03/04 05:18:53;;;;;;;173.05;163.10;;;-3.10;99.90;;;;;;5025098;28;20658;-80
2022/03/04 05:21:23;;;;;;;147.88;138.65;;;-3.30;99.90;;;;;;5025302;28;20198;-81
2022/03/04 05:24:04;;;;;;;167.68;157.10;;;-3.40;99.90;;;;;;5026156;28;20198;-81
2022/03/04 05:26:33;;;;;;;167.13;156.75;;;-3.40;99.90;;;;;;5025151;28;20273;-80
2022/03/04 05:29:03;;;;;;;201.18;188.88;;;-3.40;99.90;;;;;;5024657;28;20586;-80
2022/03/04 05:31:30;;;;;;;188.85;178.15;;;-3.50;99.90;;;;;;5025564;28;20217;-81
2022/03/04 05:33:58;;;;;;;195.07;184.20;;;-3.50;99.90;;;;;;5024922;28;20618;-81
2022/03/04 05:36:28;;;;;;;190.00;178.45;;;-3.50;99.90;;;;;;5025426;28;20198;-80
2022/03/04 05:38:55;;;;;;;187.43;176.10;;;-3.50;99.90;;;;;;5024735;28;20201;-80
2022/03/04 05:41:22;;;;;;;172.40;161.30;;;-3.60;99.90;;;;;;5024507;28;20650;-79
2022/03/04 05:43:50;;;;;;;192.32;180.90;;;-3.60;99.90;;;;;;5025230;28;20281;-81
2022/03/04 05:46:18;;;;;;;225.63;212.32;;;-3.60;99.90;;;;;;5025877;28;20230;-81
2022/03/04 05:48:51;;;;;;;336.90;318.63;;;-3.70;99.90;;;;;;5025097;28;20194;-81
2022/03/04 05:51:19;;;;;;;330.00;312.10;;;-3.60;99.90;;;;;;5026659;28;20199;-81
2022/03/04 05:53:45;;;;;;;321.90;303.75;;;-3.60;99.90;;;;;;5025657;28;20225;-80
2022/03/04 05:56:12;;;;;;;259.95;245.68;;;-3.60;99.90;;;;;;5024865;28;20198;-80
2022/03/04 05:58:40;;;;;;;325.75;307.10;;;-3.70;99.90;;;;;;5020858;28;20198;-80
2022/03/04 06:01:07;;;;;;;477.48;452.20;;;-3.70;99.90;;;;;;5020816;28;20210;-80
2022/03/04 06:03:37;;;;;;;494.50;468.05;;;-3.80;99.90;;;;;;5020581;28;20194;-79
2022/03/04 06:06:04;;;;;;;523.42;494.42;;;-3.50;99.90;;;;;;5019499;28;20206;-80
2022/03/04 06:08:31;;;;;;;529.42;500.95;;;-3.50;99.90;;;;;;5021048;28;20205;-79
2022/03/04 06:10:58;;;;;;;442.65;418.52;;;-3.50;99.90;;;;;;5020166;28;20214;-80
2022/03/04 06:13:25;;;;;;;490.48;463.70;;;-3.60;99.90;;;;;;5020698;28;20736;-80
2022/03/04 06:15:52;;;;;;;599.45;564.92;;;-3.60;99.90;;;;;;5021122;28;20202;-80
2022/03/04 06:18:19;;;;;;;557.00;526.13;;;-3.60;99.90;;;;;;5019666;28;20218;-80
2022/03/04 06:20:47;;;;;;;474.85;448.63;;;-3.60;99.90;;;;;;5021142;28;20229;-80
2022/03/04 06:23:14;;;;;;;392.30;371.35;;;-3.40;99.90;;;;;;5020845;28;20208;-80
2022/03/04 06:25:41;;;;;;;324.27;307.13;;;-3.50;99.90;;;;;;5020525;28;20198;-80
2022/03/04 06:28:08;;;;;;;303.27;286.73;;;-3.50;99.90;;;;;;5020501;28;20201;-80
2022/03/04 06:30:37;;;;;;;231.73;218.25;;;-3.50;99.90;;;;;;5019082;28;20214;-79
2022/03/04 06:35:50;;;;;;;288.38;272.38;;;-3.40;99.90;;;;;;5020272;28;20386;-79
2022/03/04 06:38:17;;;;;;;269.27;253.73;;;-3.50;99.90;;;;;;5019046;28;20293;-80
2022/03/04 06:40:45;;;;;;;269.33;253.63;;;-3.40;99.90;;;;;;5020146;28;20245;-80
2022/03/04 06:43:12;;;;;;;293.25;276.67;;;-3.40;99.90;;;;;;5019104;28;20204;-80
2022/03/04 06:45:41;;;;;;;304.23;286.13;;;-3.40;99.90;;;;;;5020056;28;20655;-80
2022/03/04 06:48:08;;;;;;;251.43;236.60;;;-3.30;99.90;;;;;;5020060;28;20198;-79
2022/03/04 06:50:35;;;;;;;289.23;273.08;;;-3.30;99.90;;;;;;5020048;28;20597;-79
2022/03/04 06:53:03;;;;;;;267.95;252.85;;;-3.20;99.90;;;;;;5022460;28;20219;-80
2022/03/04 06:55:30;;;;;;;274.77;259.60;;;-3.20;99.90;;;;;;5022659;28;20205;-80
2022/03/04 06:57:57;;;;;;;272.85;257.30;;;-3.10;99.90;;;;;;5022743;28;20202;-80
2022/03/04 07:00:24;;;;;;;278.95;262.48;;;-3.00;99.90;;;;;;5020289;28;20237;-81
2022/03/04 07:02:51;;;;;;;323.80;306.05;;;-2.90;99.90;;;;;;5022346;28;20194;-80
2022/03/04 07:05:21;;;;;;;327.10;309.60;;;-2.80;99.90;;;;;;5020990;28;20198;-79
2022/03/04 07:07:48;;;;;;;324.15;307.17;;;-2.70;99.90;;;;;;5021055;28;20305;-80
2022/03/04 07:10:17;;;;;;;300.30;284.10;;;-2.60;99.90;;;;;;5021921;28;20232;-81
2022/03/04 07:12:43;;;;;;;289.00;272.52;;;-2.50;99.90;;;;;;5022275;28;20234;-80
2022/03/04 07:15:11;;;;;;;267.70;252.50;;;-2.40;99.90;;;;;;5022252;28;20202;-80
2022/03/04 07:17:38;;;;;;;224.70;211.45;;;-2.20;99.90;;;;;;5023232;28;20289;-81
2022/03/04 07:20:06;;;;;;;175.00;164.07;;;-2.00;99.90;;;;;;5019457;28;20462;-79
2022/03/04 07:22:35;;;;;;;156.00;146.57;;;-1.90;99.90;;;;;;5021599;28;20195;-80
2022/03/04 07:25:02;;;;;;;145.93;136.50;;;-1.80;99.90;;;;;;5020805;28;20195;-80
2022/03/04 07:27:30;;;;;;;131.45;123.85;;;-1.60;99.90;;;;;;5021577;28;20202;-81
2022/03/04 07:29:57;;;;;;;119.85;111.85;;;-1.70;99.90;;;;;;5021224;28;20218;-81
2022/03/04 07:32:23;;;;;;;104.38;98.07;;;-1.60;99.90;;;;;;5022770;28;20295;-81
2022/03/04 07:34:50;;;;;;;112.55;105.35;;;-1.40;99.90;;;;;;5021950;28;20209;-80
2022/03/04 07:37:17;;;;;;;120.30;112.97;;;-1.30;99.90;;;;;;5021790;28;20202;-81
2022/03/04 07:39:44;;;;;;;124.78;116.90;;;-1.20;99.90;;;;;;5020820;28;20233;-80
2022/03/04 07:42:11;;;;;;;97.97;91.80;;;-1.10;99.90;;;;;;5022092;28;20209;-81
2022/03/04 07:44:39;;;;;;;87.07;80.63;;;-0.90;99.90;;;;;;5021376;28;20202;-81
2022/03/04 07:47:06;;;;;;;83.85;77.20;;;-0.70;99.90;;;;;;5021545;28;20202;-81
2022/03/04 07:49:33;;;;;;;79.53;73.80;;;-0.50;99.90;;;;;;5021485;28;20300;-80
2022/03/04 07:51:59;;;;;;;47.50;42.83;;;-0.30;99.90;;;;;;5021825;28;20682;-80
2022/03/04 07:54:26;;;;;;;49.72;43.13;;;0.00;98.80;;;;;;5021420;28;20226;-81
2022/03/04 07:56:55;;;;;;;47.10;28.23;;;0.20;98.00;;;;;;5021542;28;20294;-81
2022/03/04 07:59:22;;;;;;;38.40;24.80;;;0.40;94.90;;;;;;5020583;28;20487;-81
2022/03/04 08:01:50;;;;;;;38.80;23.47;;;0.60;94.70;;;;;;5021233;28;20481;-81
2022/03/04 08:04:17;;;;;;;36.65;21.20;;;0.80;93.20;;;;;;5020684;28;20458;-81
2022/03/04 08:06:43;;;;;;;35.97;19.33;;;1.00;90.00;;;;;;5021014;28;20296;-81
2022/03/04 08:09:10;;;;;;;32.03;18.13;;;1.20;86.90;;;;;;5020877;28;20965;-81
2022/03/04 08:11:37;;;;;;;32.00;19.33;;;1.30;83.00;;;;;;5021359;28;20464;-79
2022/03/04 08:14:04;;;;;;;32.50;19.95;;;1.40;80.10;;;;;;5020559;28;20477;-80
2022/03/04 08:16:31;;;;;;;38.03;20.77;;;1.60;76.80;;;;;;5021992;28;20671;-81
2022/03/04 08:19:03;;;;;;;33.20;21.20;;;1.80;71.20;;;;;;5020818;28;20529;-81
2022/03/04 08:21:30;;;;;;;30.93;17.30;;;1.90;71.10;;;;;;5021926;28;20831;-80
2022/03/04 08:23:57;;;;;;;35.10;17.87;;;2.10;68.80;;;;;;5020570;28;20449;-81
2022/03/04 08:26:23;;;;;;;36.30;20.53;;;2.20;68.70;;;;;;5020769;28;20453;-80
2022/03/04 08:28:51;;;;;;;34.53;19.10;;;2.30;67.80;;;;;;5020539;28;20460;-81
2022/03/04 08:31:17;;;;;;;38.70;21.50;;;2.40;67.70;;;;;;5020870;28;20453;-82
2022/03/04 08:33:47;;;;;;;35.37;18.60;;;2.50;66.50;;;;;;5021432;28;20500;-81
2022/03/04 08:36:15;;;;;;;39.30;18.77;;;2.70;65.30;;;;;;5022262;28;20845;-81
2022/03/04 08:38:42;;;;;;;31.17;18.23;;;2.80;62.40;;;;;;5021590;28;20451;-80
2022/03/04 08:41:09;;;;;;;28.37;17.97;;;2.90;60.90;;;;;;5021688;28;20444;-81
2022/03/04 08:43:36;;;;;;;29.67;19.43;;;3.10;61.70;;;;;;5021679;28;20461;-81
2022/03/04 08:46:03;;;;;;;32.40;18.43;;;3.20;56.80;;;;;;5020408;28;20950;-81
2022/03/04 08:48:30;;;;;;;34.93;19.13;;;3.30;56.20;;;;;;5020986;28;20457;-80
2022/03/04 08:50:57;;;;;;;30.97;18.67;;;3.40;53.40;;;;;;5020837;28;20473;-81
2022/03/04 08:53:27;;;;;;;28.10;17.53;;;3.50;53.40;;;;;;5020665;28;20484;-81
2022/03/04 08:55:54;;;;;;;35.13;19.57;;;3.60;51.30;;;;;;5020964;28;20464;-81
2022/03/04 08:58:21;;;;;;;32.93;16.80;;;3.70;50.30;;;;;;5020442;28;20460;-81
2022/03/04 09:00:48;;;;;;;30.93;18.47;;;3.80;50.00;;;;;;5020992;28;20481;-81
2022/03/04 09:03:15;;;;;;;31.73;19.27;;;3.90;48.20;;;;;;5021051;28;20445;-81
2022/03/04 09:05:41;;;;;;;28.30;19.47;;;4.00;48.30;;;;;;5021484;28;20983;-82
2022/03/04 09:08:08;;;;;;;35.93;20.60;;;4.20;48.50;;;;;;5020672;28;21042;-79
2022/03/04 09:10:36;;;;;;;35.57;17.50;;;4.40;44.80;;;;;;5020256;28;20489;-81
2022/03/04 09:13:04;;;;;;;27.03;19.00;;;4.70;45.40;;;;;;5021533;28;20481;-81
2022/03/04 09:15:31;;;;;;;30.23;19.17;;;5.10;40.70;;;;;;5020707;28;20460;-83
2022/03/04 09:17:58;;;;;;;32.70;21.23;;;5.50;41.00;;;;;;5021165;28;20488;-82
2022/03/04 09:20:25;;;;;;;34.70;20.63;;;6.00;36.00;;;;;;5020577;28;20509;-81
2022/03/04 09:22:55;;;;;;;33.70;22.30;;;6.50;34.10;;;;;;5021193;28;20460;-82
2022/03/04 09:25:22;;;;;;;33.87;22.30;;;6.90;32.30;;;;;;5021222;28;20453;-82
2022/03/04 09:27:50;;;;;;;30.80;20.40;;;7.30;28.00;;;;;;5020260;28;20459;-82
2022/03/04 09:30:17;;;;;;;38.33;21.37;;;7.50;26.30;;;;;;5021107;28;20481;-82
2022/03/04 09:32:44;;;;;;;33.60;22.23;;;7.70;23.80;;;;;;5020591;28;20480;-82
2022/03/04 09:35:11;;;;;;;44.03;23.80;;;8.00;25.20;;;;;;5024722;28;20950;-82
2022/03/04 09:37:39;;;;;;;33.13;21.03;;;8.10;23.30;;;;;;5024704;28;20826;-82
2022/03/04 09:40:10;;;;;;;34.00;22.90;;;8.20;21.80;;;;;;5023998;28;20476;-82
2022/03/04 09:42:37;;;;;;;34.03;22.20;;;8.50;20.70;;;;;;5025014;28;20452;-80
2022/03/04 09:45:06;;;;;;;32.47;22.53;;;8.70;19.70;;;;;;5024697;28;20460;-82
2022/03/04 09:47:33;;;;;;;36.90;23.30;;;9.00;18.60;;;;;;5024071;28;20457;-82
2022/03/04 09:50:02;;;;;;;32.67;23.53;;;9.30;17.50;;;;;;5024720;28;20958;-82
2022/03/04 09:52:30;;;;;;;34.27;24.23;;;9.40;16.50;;;;;;5025300;28;20532;-82
2022/03/04 09:54:57;;;;;;;34.93;24.80;;;9.40;15.60;;;;;;5024373;28;20492;-82
2022/03/04 09:57:24;;;;;;;34.23;22.57;;;9.90;15.60;;;;;;5023448;28;20464;-81
2022/03/04 09:59:51;;;;;;;34.50;23.90;;;9.80;13.20;;;;;;5034008;23;20492;-84
2022/03/04 10:02:19;;;;;;;31.00;23.30;;;9.90;13.20;;;;;;5015303;28;20519;-84
2022/03/04 10:04:47;;;;;;;35.07;23.90;;;10.00;12.50;;;;;;5015152;28;20452;-84
2022/03/04 10:07:15;;;;;;;35.03;25.30;;;10.30;12.70;;;;;;5015028;28;20464;-85
2022/03/04 10:09:43;;;;;;;35.27;25.20;;;10.60;10.80;;;;;;5014331;28;20470;-84
2022/03/04 10:12:11;;;;;;;37.23;25.23;;;10.70;9.60;;;;;;5015343;28;20456;-84
2022/03/04 10:14:56;;;;;;;32.57;24.40;;;11.10;9.00;;;;;;5015120;28;20568;-84
2022/03/04 10:17:25;;;;;;;33.77;24.60;;;10.70;7.50;;;;;;5016624;28;20460;-84
2022/03/04 10:19:52;;;;;;;37.00;26.73;;;10.60;6.60;;;;;;5017476;28;20474;-84
2022/03/04 10:22:19;;;;;;;34.70;25.07;;;10.60;7.10;;;;;;5018639;28;20451;-85
2022/03/04 10:24:46;;;;;;;39.63;27.20;;;10.40;8.00;;;;;;5019234;28;20441;-85
2022/03/04 10:27:15;;;;;;;34.40;25.43;;;10.80;7.50;;;;;;5019270;28;20457;-85
2022/03/04 10:29:44;;;;;;;34.63;25.37;;;10.90;4.60;;;;;;5018605;28;20478;-85
2022/03/04 10:32:14;;;;;;;35.80;25.03;;;10.90;5.60;;;;;;5019096;28;20455;-84
2022/03/04 10:34:48;;;;;;;41.70;24.80;;;11.10;5.70;;;;;;5018241;28;20481;-84
2022/03/04 10:37:16;;;;;;;35.07;25.10;;;11.30;4.00;;;;;;5018960;28;20461;-85
2022/03/04 10:40:02;;;;;;;35.83;24.30;;;11.40;3.60;;;;;;5018743;28;20992;-84
2022/03/04 10:42:46;;;;;;;32.80;23.40;;;11.50;2.40;;;;;;5019410;28;20471;-85
2022/03/04 10:45:15;;;;;;;39.07;26.57;;;12.10;4.40;;;;;;5018331;28;20451;-85
2022/03/04 10:47:45;;;;;;;33.53;26.13;;;12.40;2.80;;;;;;5019243;28;20463;-85
2022/03/04 10:50:14;;;;;;;37.30;25.00;;;13.10;2.70;;;;;;5018511;28;20472;-85
2022/03/04 10:52:49;;;;;;;31.93;26.40;;;13.40;1.20;;;;;;5014519;28;20471;-85
2022/03/04 10:55:30;;;;;;;38.00;31.93;;;14.20;1.00;;;;;;5014106;28;20485;-84
2022/03/04 10:57:57;;;;;;;33.20;27.40;;;14.60;1.00;;;;;;5014123;28;20491;-85
2022/03/04 11:00:25;;;;;;;31.73;25.47;;;14.60;1.00;;;;;;5013463;28;20488;-84
2022/03/04 11:02:53;;;;;;;33.70;25.50;;;14.70;1.00;;;;;;5013774;28;20456;-85
2022/03/04 11:05:22;;;;;;;37.93;26.43;;;14.50;1.00;;;;;;5013977;28;20517;-84
2022/03/04 11:07:50;;;;;;;41.27;27.87;;;14.80;1.00;;;;;;5013937;28;20953;-85
2022/03/04 11:10:18;;;;;;;38.90;34.30;;;14.20;1.00;;;;;;5013489;28;20524;-84
2022/03/04 11:12:46;;;;;;;39.80;31.97;;;13.60;1.00;;;;;;5013953;28;20462;-84
2022/03/04 11:15:13;;;;;;;31.07;24.57;;;13.20;1.00;;;;;;5013734;28;20456;-85
2022/03/04 11:17:40;;;;;;;34.57;24.70;;;13.30;1.00;;;;;;5013587;28;20457;-85
2022/03/04 11:20:09;;;;;;;31.33;24.80;;;13.10;1.00;;;;;;5013443;28;20510;-85
2022/03/04 11:22:40;;;;;;;33.70;25.70;;;13.50;1.00;;;;;;5014664;28;20966;-85
2022/03/04 11:25:10;;;;;;;31.90;23.97;;;13.90;1.00;;;;;;5016031;28;20855;-85
2022/03/04 11:27:42;;;;;;;35.30;26.90;;;14.00;1.00;;;;;;5013881;28;20516;-85
2022/03/04 11:30:24;;;;;;;30.17;23.43;;;14.60;1.00;;;;;;5013820;28;20533;-85
2022/03/04 11:33:00;;;;;;;35.80;25.30;;;15.00;1.00;;;;;;5013152;28;20462;-85
2022/03/04 11:35:48;;;;;;;31.80;25.83;;;15.20;1.00;;;;;;5013197;28;20458;-85
2022/03/04 11:38:35;;;;;;;33.53;24.50;;;14.70;1.00;;;;;;5014361;28;20832;-85
2022/03/04 11:41:05;;;;;;;29.43;21.70;;;13.80;1.00;;;;;;5019289;28;20480;-86
2022/03/04 11:43:45;;;;;;;30.10;23.07;;;14.20;1.00;;;;;;5013303;28;20459;-84
2022/03/04 11:46:18;;;;;;;34.30;24.40;;;15.10;1.00;;;;;;5013221;28;20453;-84
2022/03/04 11:48:45;;;;;;;32.67;24.83;;;15.40;1.00;;;;;;5013042;28;20834;-84
2022/03/04 11:51:16;;;;;;;31.63;24.20;;;15.90;1.00;;;;;;5013083;28;21029;-83
2022/03/04 11:53:44;;;;;;;32.43;25.03;;;16.30;1.00;;;;;;5013318;28;20460;-84
2022/03/04 11:56:14;;;;;;;34.00;24.50;;;16.40;1.00;;;;;;5012827;28;20457;-85
2022/03/04 11:59:19;;;;;;;30.40;23.50;;;16.20;1.00;;;;;;5012190;28;20494;-84
2022/03/04 12:01:46;;;;;;;31.30;24.00;;;16.20;1.00;;;;;;5012879;28;20480;-83
2022/03/04 12:04:14;;;;;;;31.67;23.17;;;16.40;1.00;;;;;;5011367;28;20478;-83
2022/03/04 12:06:42;;;;;;;28.47;22.00;;;16.30;1.00;;;;;;5012626;28;20460;-84
2022/03/04 12:09:27;;;;;;;34.20;22.60;;;16.60;1.00;;;;;;5011661;28;20449;-83
2022/03/04 12:12:13;;;;;;;34.07;24.17;;;16.80;1.00;;;;;;5012691;28;20456;-84
2022/03/04 12:14:42;;;;;;;300.23;204.50;;;17.30;1.00;;;;;;5012324;28;20481;-83
2022/03/04 12:17:09;;;;;;;180.17;94.57;;;17.00;1.00;;;;;;5012444;28;20461;-84
2022/03/04 12:19:36;;;;;;;48.67;33.70;;;17.00;1.00;;;;;;5011653;28;20469;-84
2022/03/04 12:22:04;;;;;;;43.03;28.87;;;16.90;1.00;;;;;;5012291;28;20459;-84
2022/03/04 12:24:34;;;;;;;58.10;36.20;;;17.30;1.00;;;;;;5012084;28;21027;-84
2022/03/04 12:27:02;;;;;;;51.70;32.53;;;17.40;1.00;;;;;;5012544;28;20454;-84
2022/03/04 12:29:46;;;;;;;68.97;40.40;;;17.70;1.00;;;;;;5013276;28;20504;-86
2022/03/04 12:32:14;;;;;;;51.03;31.53;;;17.80;1.00;;;;;;5013135;28;20452;-83
2022/03/04 12:34:50;;;;;;;50.73;32.40;;;17.60;1.00;;;;;;5012666;28;20946;-83
2022/03/04 12:37:17;;;;;;;89.63;52.47;;;16.90;1.00;;;;;;5012561;28;20526;-84